Terminal Aerodrome Forecast
Issued by NWS Portland, OR

Home | Current Version | Previous Version | Text Only | Print | Product List | Glossary On
Versions: 1 2 3 4 5 6 7 8 9 10 11 12
000
FTUS46 KPQR 111128
TAFHIO
TAF
KHIO 111128Z 1112/1212 VRB03KT P6SM SCT250
     FM120800 00000KT 4SM MIFG SCT003=

USA.gov is the U.S. government's official web portal to all federal, state and local government web resources and services.